createdAt,value
2023-03-19T00:03:49.964Z,44.03
2023-03-19T00:05:57.971Z,46.40
2023-03-19T00:08:05.151Z,44.67
2023-03-19T00:10:12.698Z,43.13
2023-03-19T00:12:20.035Z,47.72
2023-03-19T00:14:30.333Z,48.05
2023-03-19T00:19:17.055Z,45.42
2023-03-19T00:26:06.404Z,43.08
2023-03-19T00:28:14.872Z,43.38
2023-03-19T00:30:24.676Z,42.97
2023-03-19T00:32:31.648Z,44.50
2023-03-19T00:34:38.923Z,42.20
2023-03-19T00:36:45.953Z,43.30
2023-03-19T00:38:53.591Z,42.30
2023-03-19T00:41:00.733Z,43.35
2023-03-19T00:43:08.165Z,43.65
2023-03-19T00:45:15.952Z,45.65
2023-03-19T00:52:15.242Z,41.83
2023-03-19T00:54:22.208Z,42.97
2023-03-19T00:56:29.750Z,44.15
2023-03-19T00:58:36.684Z,43.88
2023-03-19T01:00:44.027Z,44.50
2023-03-19T01:02:52.796Z,43.58
2023-03-19T01:04:59.955Z,44.85
2023-03-19T01:07:06.931Z,44.35
2023-03-19T01:09:14.238Z,42.70
2023-03-19T01:11:21.079Z,45.40
2023-03-19T01:13:28.271Z,46.15
2023-03-19T01:18:24.930Z,45.83
2023-03-19T01:23:12.633Z,46.22
2023-03-19T01:25:20.112Z,45.13
2023-03-19T01:29:59.919Z,43.10
2023-03-19T01:39:51.690Z,48.30
2023-03-19T01:42:19.641Z,46.97
2023-03-19T01:47:49.496Z,46.63
2023-03-19T02:01:49.197Z,46.28
2023-03-19T02:04:04.154Z,45.83
2023-03-19T02:11:17.604Z,47.95
2023-03-19T02:15:56.282Z,46.28
2023-03-19T02:20:40.517Z,47.55
2023-03-19T02:25:53.598Z,44.22
2023-03-19T02:30:35.517Z,45.50
2023-03-19T02:33:03.966Z,47.30
2023-03-19T02:35:16.593Z,47.10
2023-03-19T02:40:08.161Z,44.65
2023-03-19T02:42:25.751Z,45.13
2023-03-19T02:44:49.988Z,45.00
2023-03-19T02:49:26.809Z,44.70
2023-03-19T02:51:44.054Z,45.15
2023-03-19T02:56:20.464Z,42.42
2023-03-19T02:58:30.937Z,45.33
2023-03-19T03:00:44.280Z,44.10
2023-03-19T03:07:39.898Z,42.33
2023-03-19T03:12:11.018Z,43.90
2023-03-19T03:21:35.000Z,42.63
2023-03-19T03:23:44.277Z,41.13
2023-03-19T03:25:54.417Z,44.08
2023-03-19T03:28:04.311Z,42.65
2023-03-19T03:30:16.044Z,41.65
2023-03-19T03:32:25.789Z,41.42
2023-03-19T03:34:32.970Z,41.17
2023-03-19T03:36:40.973Z,38.50
2023-03-19T03:38:47.949Z,42.30
2023-03-19T03:40:56.255Z,41.50
2023-03-19T03:43:05.640Z,39.65
2023-03-19T03:45:15.541Z,39.33
2023-03-19T03:47:26.250Z,40.55
2023-03-19T03:49:33.690Z,41.58
2023-03-19T03:51:40.550Z,41.45
2023-03-19T03:53:47.795Z,41.55
2023-03-19T03:55:54.929Z,42.17
2023-03-19T03:58:05.178Z,39.90
2023-03-19T04:00:13.896Z,38.30
2023-03-19T04:02:20.813Z,40.58
2023-03-19T04:04:32.153Z,40.15
2023-03-19T04:06:39.536Z,41.92
2023-03-19T04:09:15.597Z,39.42
2023-03-19T04:11:23.088Z,40.45
2023-03-19T04:13:30.424Z,40.83
2023-03-19T04:15:37.755Z,40.38
2023-03-19T04:17:46.439Z,41.42
2023-03-19T04:19:56.010Z,42.40
2023-03-19T04:22:04.466Z,41.05
2023-03-19T04:24:13.151Z,42.80
2023-03-19T04:26:20.627Z,42.15
2023-03-19T04:28:28.524Z,39.63
2023-03-19T04:30:35.758Z,40.67
2023-03-19T04:32:45.368Z,40.05
2023-03-19T04:34:52.528Z,39.92
2023-03-19T04:37:01.809Z,40.05
2023-03-19T04:39:10.423Z,38.72
2023-03-19T04:41:18.662Z,39.38
2023-03-19T04:43:39.547Z,38.38
2023-03-19T04:45:46.754Z,37.10
2023-03-19T04:47:53.636Z,38.00
2023-03-19T04:50:00.805Z,38.13
2023-03-19T04:52:12.665Z,37.67
2023-03-19T04:54:19.894Z,37.67
2023-03-19T04:56:27.644Z,38.90
2023-03-19T04:58:37.076Z,39.08
2023-03-19T05:00:44.213Z,37.78
2023-03-19T05:02:51.434Z,37.95
2023-03-19T05:04:58.827Z,41.95
2023-03-19T05:07:05.953Z,38.90
2023-03-19T05:09:15.490Z,38.10
2023-03-19T05:11:23.192Z,36.88
2023-03-19T05:13:51.408Z,39.63
2023-03-19T05:15:59.066Z,37.42
2023-03-19T05:18:06.243Z,37.45
2023-03-19T05:20:17.215Z,38.10
2023-03-19T05:22:30.532Z,37.72
2023-03-19T05:24:39.434Z,39.60
2023-03-19T05:26:48.171Z,35.97
2023-03-19T05:29:18.650Z,35.47
2023-03-19T05:31:52.348Z,35.83
2023-03-19T05:34:00.760Z,36.65
2023-03-19T05:36:10.968Z,36.05
2023-03-19T05:38:32.277Z,35.70
2023-03-19T05:40:46.622Z,35.83
2023-03-19T05:43:05.844Z,34.53
2023-03-19T05:45:13.890Z,34.25
2023-03-19T05:47:29.007Z,34.40
2023-03-19T05:49:37.828Z,34.85
2023-03-19T05:51:45.417Z,35.10
2023-03-19T05:53:52.581Z,35.03
2023-03-19T05:56:37.465Z,34.60
2023-03-19T05:59:13.779Z,37.15
2023-03-19T06:01:30.537Z,36.03
2023-03-19T06:03:38.909Z,35.65
2023-03-19T06:05:48.791Z,34.80
2023-03-19T06:08:15.767Z,36.33
2023-03-19T06:11:00.960Z,34.63
2023-03-19T06:13:10.288Z,34.15
2023-03-19T06:15:37.801Z,35.72
2023-03-19T06:20:26.871Z,35.28
2023-03-19T06:22:34.110Z,36.97
2023-03-19T06:24:41.341Z,34.20
2023-03-19T06:26:48.417Z,33.75
2023-03-19T06:28:57.597Z,35.42
2023-03-19T06:31:07.975Z,33.45
2023-03-19T06:33:35.512Z,34.25
2023-03-19T06:35:42.517Z,34.85
2023-03-19T06:37:50.136Z,33.38
2023-03-19T06:39:57.227Z,35.05
2023-03-19T06:42:04.438Z,34.55
2023-03-19T06:44:13.321Z,33.50
2023-03-19T06:46:20.416Z,34.78
2023-03-19T06:48:27.323Z,33.75
2023-03-19T06:50:34.788Z,33.58
2023-03-19T06:52:41.739Z,35.25
2023-03-19T06:54:48.893Z,33.38
2023-03-19T06:56:55.901Z,32.95
2023-03-19T06:59:03.341Z,33.38
2023-03-19T07:01:12.100Z,32.42
2023-03-19T07:03:19.287Z,32.58
2023-03-19T07:05:26.225Z,34.00
2023-03-19T07:07:33.390Z,32.40
2023-03-19T07:09:40.217Z,31.77
2023-03-19T07:11:47.294Z,32.80
2023-03-19T07:13:54.167Z,31.92
2023-03-19T07:16:01.398Z,30.73
2023-03-19T07:18:10.325Z,31.67
2023-03-19T07:20:18.375Z,32.13
2023-03-19T07:22:25.310Z,31.15
2023-03-19T07:24:32.226Z,35.05
2023-03-19T07:26:39.157Z,31.70
2023-03-19T07:28:46.590Z,33.20
2023-03-19T07:30:55.562Z,32.72
2023-03-19T07:33:02.876Z,31.52
2023-03-19T07:35:13.103Z,31.05
2023-03-19T07:37:22.392Z,31.80
2023-03-19T07:39:29.461Z,31.25
2023-03-19T07:41:36.705Z,31.88
2023-03-19T07:43:43.618Z,31.70
2023-03-19T07:45:50.908Z,31.67
2023-03-19T07:47:57.775Z,31.48
2023-03-19T07:50:04.965Z,32.30
2023-03-19T07:52:14.606Z,31.52
2023-03-19T07:54:22.443Z,30.05
2023-03-19T07:56:29.316Z,31.67
2023-03-19T07:58:36.446Z,31.05
2023-03-19T08:00:43.318Z,32.17
2023-03-19T08:02:50.568Z,31.10
2023-03-19T08:04:57.376Z,31.42
2023-03-19T08:07:04.528Z,31.58
2023-03-19T08:09:13.641Z,29.27
2023-03-19T08:11:20.766Z,30.45
2023-03-19T08:13:27.850Z,31.05
2023-03-19T08:15:35.035Z,30.75
2023-03-19T08:17:42.256Z,30.30
2023-03-19T08:19:49.441Z,30.63
2023-03-19T08:21:56.415Z,30.77
2023-03-19T08:24:05.000Z,31.00
2023-03-19T08:26:13.906Z,31.67
2023-03-19T08:28:21.091Z,31.13
2023-03-19T08:30:28.148Z,29.88
2023-03-19T08:32:35.561Z,30.30
2023-03-19T08:34:42.483Z,31.02
2023-03-19T08:36:49.554Z,30.98
2023-03-19T08:38:56.430Z,28.67
2023-03-19T08:41:05.352Z,30.23
2023-03-19T08:43:13.967Z,29.42
2023-03-19T08:45:21.924Z,30.15
2023-03-19T08:47:28.957Z,30.50
2023-03-19T08:49:36.282Z,31.23
2023-03-19T08:51:43.217Z,30.33
2023-03-19T08:53:50.335Z,31.02
2023-03-19T08:55:58.183Z,31.55
2023-03-19T08:58:05.366Z,30.08
2023-03-19T09:00:15.325Z,30.75
2023-03-19T09:02:22.798Z,31.15
2023-03-19T09:04:29.719Z,31.30
2023-03-19T09:06:36.867Z,30.20
2023-03-19T09:08:44.293Z,30.77
2023-03-19T09:10:51.636Z,29.63
2023-03-19T09:12:58.557Z,30.42
2023-03-19T09:15:05.837Z,30.05
2023-03-19T09:17:16.501Z,30.00
2023-03-19T09:19:24.657Z,29.35
2023-03-19T09:21:31.689Z,29.15
2023-03-19T09:23:38.976Z,29.75
2023-03-19T09:25:45.842Z,29.58
2023-03-19T09:27:52.873Z,29.20
2023-03-19T09:29:59.795Z,29.67
2023-03-19T09:32:07.131Z,29.80
2023-03-19T09:34:15.850Z,30.83
2023-03-19T09:36:23.043Z,30.83
2023-03-19T09:38:31.136Z,31.90
2023-03-19T09:40:42.209Z,30.52
2023-03-19T09:43:09.620Z,32.70
2023-03-19T09:45:19.096Z,30.40
2023-03-19T09:47:32.423Z,29.83
2023-03-19T09:49:44.085Z,29.98
2023-03-19T09:51:53.603Z,29.40
2023-03-19T09:54:02.930Z,29.77
2023-03-19T09:56:15.181Z,27.63
2023-03-19T09:58:24.256Z,28.02
2023-03-19T10:00:33.623Z,28.05
2023-03-19T10:02:45.791Z,27.48
2023-03-19T10:05:08.169Z,27.02
2023-03-19T10:07:43.979Z,28.52
2023-03-19T10:10:03.241Z,28.02
2023-03-19T10:12:28.908Z,27.38
2023-03-19T10:15:05.001Z,28.67
2023-03-19T10:17:19.675Z,28.75
2023-03-19T10:19:37.630Z,28.38
2023-03-19T10:21:51.706Z,27.83
2023-03-19T10:24:03.749Z,29.33
2023-03-19T10:26:15.845Z,27.88
2023-03-19T10:28:23.235Z,28.05
2023-03-19T10:30:34.674Z,27.85
2023-03-19T10:32:46.185Z,28.42
2023-03-19T10:37:09.171Z,27.33
2023-03-19T10:39:18.754Z,29.23
2023-03-19T10:41:33.117Z,27.92
2023-03-19T10:43:41.717Z,30.00
2023-03-19T10:45:50.220Z,28.98
2023-03-19T10:47:58.938Z,30.33
2023-03-19T10:50:07.210Z,30.33
2023-03-19T10:52:25.804Z,30.02
2023-03-19T10:54:33.346Z,29.92
2023-03-19T10:56:49.026Z,29.02
2023-03-19T10:59:03.684Z,29.08
2023-03-19T11:01:13.123Z,30.20
2023-03-19T11:03:33.137Z,28.25
2023-03-19T11:05:40.330Z,29.60
2023-03-19T11:07:53.473Z,31.05
2023-03-19T11:10:00.632Z,31.27
2023-03-19T11:12:19.082Z,31.08
2023-03-19T11:14:31.069Z,30.70
2023-03-19T11:16:51.342Z,31.00
2023-03-19T11:18:58.553Z,31.95
2023-03-19T11:21:10.435Z,32.25
2023-03-19T11:23:23.515Z,31.55
2023-03-19T11:25:32.806Z,34.08
2023-03-19T11:27:40.115Z,31.65
2023-03-19T11:29:48.272Z,33.40
2023-03-19T11:32:20.334Z,33.47
2023-03-19T11:34:36.431Z,33.28
2023-03-19T11:36:53.246Z,32.00
2023-03-19T11:39:18.339Z,31.50
2023-03-19T11:41:37.859Z,34.63
2023-03-19T11:44:02.539Z,36.00
2023-03-19T11:46:19.396Z,38.28
2023-03-19T11:48:37.703Z,36.92
2023-03-19T11:50:52.309Z,37.63
2023-03-19T11:53:14.082Z,36.75
2023-03-19T11:55:28.483Z,37.80
2023-03-19T11:57:51.473Z,38.55
2023-03-19T12:00:17.920Z,38.17
2023-03-19T12:02:52.448Z,38.58
2023-03-19T12:05:21.494Z,36.67
2023-03-19T12:07:35.441Z,37.53
2023-03-19T12:09:48.448Z,38.60
2023-03-19T12:12:03.613Z,36.00
2023-03-19T12:14:27.436Z,37.35
2023-03-19T12:16:47.624Z,38.28
2023-03-19T12:19:22.303Z,37.83
2023-03-19T12:21:38.645Z,37.78
2023-03-19T12:24:00.317Z,36.97
2023-03-19T12:28:22.157Z,37.33
2023-03-19T12:30:36.760Z,37.95
2023-03-19T12:32:59.492Z,39.50
2023-03-19T12:35:12.883Z,37.15
2023-03-19T12:37:24.163Z,38.05
2023-03-19T12:39:36.103Z,36.75
2023-03-19T12:41:47.178Z,36.72
2023-03-19T12:44:04.088Z,37.70
2023-03-19T12:46:16.120Z,35.30
2023-03-19T12:48:28.689Z,34.78
2023-03-19T12:50:37.149Z,36.60
2023-03-19T12:52:53.653Z,35.50
2023-03-19T12:55:07.180Z,35.67
2023-03-19T12:57:20.414Z,36.30
2023-03-19T12:59:34.804Z,35.45
2023-03-19T13:01:45.833Z,35.35
2023-03-19T13:04:01.047Z,35.15
2023-03-19T13:06:11.247Z,36.30
2023-03-19T13:08:22.988Z,35.80
2023-03-19T13:10:32.667Z,35.40
2023-03-19T13:12:42.214Z,35.95
2023-03-19T13:15:00.917Z,37.10
2023-03-19T13:17:16.296Z,34.33
2023-03-19T13:19:31.466Z,34.60
2023-03-19T13:21:40.697Z,35.33
2023-03-19T13:23:51.095Z,35.65
2023-03-19T13:26:00.687Z,35.80
2023-03-19T13:28:13.139Z,34.90
2023-03-19T13:30:23.545Z,34.72
2023-03-19T13:32:39.718Z,34.80
2023-03-19T13:34:46.769Z,34.88
2023-03-19T13:36:58.456Z,35.75
2023-03-19T13:39:06.054Z,35.30
2023-03-19T13:41:45.277Z,36.33
2023-03-19T13:43:59.021Z,36.90
2023-03-19T13:46:40.751Z,35.95
2023-03-19T13:48:55.463Z,35.90
2023-03-19T13:51:05.996Z,35.80
2023-03-19T13:53:25.339Z,36.05
2023-03-19T13:55:47.474Z,37.75
2023-03-19T13:58:12.967Z,37.40
2023-03-19T14:00:52.115Z,36.40
2023-03-19T14:03:01.555Z,37.45
2023-03-19T14:05:18.826Z,36.40
2023-03-19T14:07:30.149Z,35.58
2023-03-19T14:09:43.396Z,35.78
2023-03-19T14:11:50.857Z,34.45
2023-03-19T14:13:58.859Z,36.17
2023-03-19T14:16:11.466Z,38.55
2023-03-19T14:18:24.674Z,36.63
2023-03-19T14:20:40.478Z,36.58
2023-03-19T14:22:59.482Z,35.60
2023-03-19T14:25:19.722Z,36.17
2023-03-19T14:27:33.865Z,36.30
2023-03-19T14:29:45.197Z,38.85
2023-03-19T14:31:54.857Z,38.80
2023-03-19T14:34:10.565Z,37.38
2023-03-19T14:36:20.876Z,37.70
2023-03-19T14:38:35.336Z,36.40
2023-03-19T14:40:48.399Z,38.28
2023-03-19T14:43:06.276Z,35.63
2023-03-19T14:45:42.671Z,37.35
2023-03-19T14:48:46.607Z,36.33
2023-03-19T14:51:19.746Z,37.90
2023-03-19T14:53:38.807Z,39.38
2023-03-19T14:55:46.293Z,38.83
2023-03-19T14:57:53.476Z,39.20
2023-03-19T15:00:00.862Z,42.60
2023-03-19T15:02:20.385Z,45.70
2023-03-19T15:04:29.064Z,47.03
2023-03-19T15:06:40.686Z,38.10
2023-03-19T15:08:47.613Z,38.65
2023-03-19T15:11:08.108Z,37.88
2023-03-19T15:13:35.468Z,39.45
2023-03-19T15:15:53.705Z,40.40
2023-03-19T15:18:04.632Z,41.88
2023-03-19T15:20:21.634Z,40.60
2023-03-19T15:22:35.337Z,40.20
2023-03-19T15:24:42.919Z,40.15
2023-03-19T15:26:49.936Z,38.30
2023-03-19T15:28:59.012Z,38.28
2023-03-19T15:31:28.435Z,36.88
2023-03-19T15:33:41.492Z,39.55
2023-03-19T15:35:52.105Z,39.45
2023-03-19T15:38:03.376Z,39.10
2023-03-19T15:40:13.836Z,38.17
2023-03-19T15:42:23.475Z,38.80
2023-03-19T15:44:35.876Z,39.63
2023-03-19T15:46:45.261Z,38.95
2023-03-19T15:48:56.491Z,38.20
2023-03-19T15:51:07.252Z,37.42
2023-03-19T15:53:18.941Z,37.95
2023-03-19T15:55:28.995Z,37.15
2023-03-19T15:57:37.351Z,36.38
2023-03-19T15:59:45.348Z,36.78
2023-03-19T16:01:52.672Z,38.17
2023-03-19T16:04:02.839Z,36.33
2023-03-19T16:06:15.719Z,38.05
2023-03-19T16:08:28.052Z,37.85
2023-03-19T16:10:46.756Z,36.28
2023-03-19T16:12:53.903Z,36.70
2023-03-19T16:15:01.272Z,38.38
2023-03-19T16:17:15.986Z,37.30
2023-03-19T16:19:37.709Z,39.42
2023-03-19T16:21:46.228Z,38.28
2023-03-19T16:24:01.233Z,40.17
2023-03-19T16:26:19.975Z,41.92
2023-03-19T16:28:26.856Z,42.08
2023-03-19T16:30:34.124Z,38.75
2023-03-19T16:32:42.254Z,37.83
2023-03-19T16:34:51.422Z,37.75
2023-03-19T16:36:58.143Z,36.97
2023-03-19T16:39:28.569Z,38.75
2023-03-19T16:41:36.314Z,38.58
2023-03-19T16:43:48.620Z,37.78
2023-03-19T16:46:06.327Z,37.50
2023-03-19T16:48:13.521Z,37.88
2023-03-19T16:50:21.368Z,39.00
2023-03-19T16:52:28.654Z,36.90
2023-03-19T16:54:37.020Z,36.88
2023-03-19T16:56:44.405Z,36.28
2023-03-19T16:58:51.424Z,36.65
2023-03-19T17:00:58.435Z,36.08
2023-03-19T17:03:05.582Z,38.20
2023-03-19T17:05:17.885Z,34.95
2023-03-19T17:07:24.556Z,36.63
2023-03-19T17:09:31.939Z,34.47
2023-03-19T17:11:43.476Z,36.67
2023-03-19T17:15:57.609Z,39.67
2023-03-19T17:18:06.824Z,39.08
2023-03-19T17:20:18.454Z,35.28
2023-03-19T17:22:28.656Z,36.05
2023-03-19T17:24:36.918Z,36.08
2023-03-19T17:26:45.530Z,36.53
2023-03-19T17:28:54.601Z,37.25
2023-03-19T17:31:01.908Z,37.33
2023-03-19T17:33:08.850Z,40.13
2023-03-19T17:35:21.579Z,36.65
2023-03-19T17:37:30.593Z,36.22
2023-03-19T17:39:38.000Z,37.10
2023-03-19T17:41:46.290Z,36.92
2023-03-19T17:43:53.404Z,38.15
2023-03-19T17:46:00.295Z,37.53
2023-03-19T17:48:07.789Z,39.97
2023-03-19T17:50:22.185Z,39.38
2023-03-19T17:52:31.415Z,35.80
2023-03-19T17:54:38.394Z,36.78
2023-03-19T17:56:47.580Z,37.15
2023-03-19T17:58:54.653Z,37.75
2023-03-19T18:01:02.026Z,37.17
2023-03-19T18:03:08.744Z,38.28
2023-03-19T18:05:19.733Z,40.30
2023-03-19T18:07:26.706Z,38.00
2023-03-19T18:09:35.067Z,38.20
2023-03-19T18:11:41.874Z,38.10
2023-03-19T18:13:50.819Z,39.88
2023-03-19T18:15:58.097Z,36.90
2023-03-19T18:18:07.633Z,36.63
2023-03-19T18:20:17.991Z,36.83
2023-03-19T18:22:25.069Z,37.28
2023-03-19T18:24:31.790Z,37.85
2023-03-19T18:26:38.876Z,37.55
2023-03-19T18:28:46.753Z,36.47
2023-03-19T18:30:55.698Z,38.72
2023-03-19T18:33:05.304Z,37.17
2023-03-19T18:35:18.695Z,40.47
2023-03-19T18:37:25.779Z,37.70
2023-03-19T18:39:37.373Z,36.53
2023-03-19T18:41:44.723Z,35.55
2023-03-19T18:43:52.052Z,35.15
2023-03-19T18:46:00.504Z,36.72
2023-03-19T18:48:19.311Z,35.88
2023-03-19T18:50:28.181Z,35.42
2023-03-19T18:52:35.206Z,36.60
2023-03-19T18:54:41.980Z,36.95
2023-03-19T18:56:50.083Z,37.67
2023-03-19T18:58:58.084Z,36.08
2023-03-19T19:01:06.886Z,35.90
2023-03-19T19:03:17.156Z,36.00
2023-03-19T19:05:28.539Z,36.45
2023-03-19T19:07:35.409Z,37.38
2023-03-19T19:09:42.693Z,35.33
2023-03-19T19:11:50.803Z,39.50
2023-03-19T19:14:00.538Z,38.83
2023-03-19T19:16:09.715Z,39.03
2023-03-19T19:18:21.299Z,38.90
2023-03-19T19:20:30.634Z,39.80
2023-03-19T19:22:37.545Z,39.50
2023-03-19T19:24:44.332Z,39.42
2023-03-19T19:26:54.945Z,38.65
2023-03-19T19:29:03.709Z,37.95
2023-03-19T19:31:26.412Z,36.03
2023-03-19T19:33:35.993Z,37.67
2023-03-19T19:35:43.039Z,37.17
2023-03-19T19:37:50.459Z,38.05
2023-03-19T19:39:57.542Z,37.75
2023-03-19T19:42:04.977Z,41.53
2023-03-19T19:44:19.813Z,37.35
2023-03-19T19:46:28.470Z,39.30
2023-03-19T19:48:35.177Z,37.63
2023-03-19T19:50:42.466Z,40.65
2023-03-19T19:52:49.694Z,40.72
2023-03-19T19:54:56.774Z,40.25
2023-03-19T19:57:03.957Z,38.75
2023-03-19T19:59:16.922Z,39.95
2023-03-19T20:01:25.323Z,38.28
2023-03-19T20:03:35.438Z,40.58
2023-03-19T20:05:42.361Z,39.20
2023-03-19T20:07:49.390Z,38.20
2023-03-19T20:09:56.231Z,37.33
2023-03-19T20:12:04.825Z,35.33
2023-03-19T20:14:16.571Z,36.83
2023-03-19T20:16:24.452Z,36.35
2023-03-19T20:18:36.563Z,35.45
2023-03-19T20:20:44.153Z,33.40
2023-03-19T20:22:52.512Z,33.47
2023-03-19T20:24:59.433Z,33.10
2023-03-19T20:27:08.155Z,32.85
2023-03-19T20:29:18.301Z,31.17
2023-03-19T20:31:30.633Z,29.13
2023-03-19T20:33:39.523Z,29.13
2023-03-19T20:35:46.734Z,27.63
2023-03-19T20:37:54.552Z,28.55
2023-03-19T20:40:01.943Z,27.30
2023-03-19T20:42:11.119Z,25.30
2023-03-19T20:44:25.070Z,26.90
2023-03-19T20:46:32.337Z,26.77
2023-03-19T20:48:42.132Z,27.25
2023-03-19T20:50:49.287Z,25.63
2023-03-19T20:52:57.929Z,25.20
2023-03-19T20:55:04.660Z,25.35
2023-03-19T20:57:16.716Z,24.75
2023-03-19T21:01:29.734Z,25.15
2023-03-19T21:03:36.652Z,23.95
2023-03-19T21:05:45.272Z,24.50
2023-03-19T21:07:53.780Z,24.65
2023-03-19T21:10:01.224Z,24.02
2023-03-19T21:12:23.759Z,25.30
2023-03-19T21:14:30.838Z,26.80
2023-03-19T21:16:37.546Z,24.92
2023-03-19T21:18:44.588Z,25.15
2023-03-19T21:20:55.923Z,24.40
2023-03-19T21:23:10.680Z,25.13
2023-03-19T21:25:23.597Z,24.48
2023-03-19T21:27:32.003Z,24.60
2023-03-19T21:29:38.681Z,23.17
2023-03-19T21:31:46.922Z,23.58
2023-03-19T21:33:55.336Z,23.20
2023-03-19T21:36:07.423Z,23.67
2023-03-19T21:38:14.521Z,22.73
2023-03-19T21:40:23.904Z,22.50
2023-03-19T21:42:32.066Z,21.75
2023-03-19T21:44:39.706Z,22.27
2023-03-19T21:46:49.613Z,21.77
2023-03-19T21:48:57.211Z,22.17
2023-03-19T21:51:06.932Z,21.40
2023-03-19T21:53:14.219Z,21.38
2023-03-19T21:55:22.042Z,22.13
2023-03-19T21:57:28.885Z,22.65
2023-03-19T21:59:36.422Z,23.20
2023-03-19T22:01:43.407Z,22.17
2023-03-19T22:03:50.619Z,21.67
2023-03-19T22:05:57.923Z,23.13
2023-03-19T22:08:07.094Z,22.27
2023-03-19T22:10:14.378Z,21.77
2023-03-19T22:12:28.382Z,22.42
2023-03-19T22:14:35.194Z,22.70
2023-03-19T22:16:42.196Z,22.30
2023-03-19T22:18:49.152Z,28.20
2023-03-19T22:20:56.776Z,24.23
2023-03-19T22:23:03.764Z,27.65
2023-03-19T22:25:14.843Z,41.88
2023-03-19T22:27:21.969Z,32.40
2023-03-19T22:29:29.867Z,34.13
2023-03-19T22:31:37.735Z,33.92
2023-03-19T22:33:45.234Z,31.75
2023-03-19T22:35:52.413Z,28.58
2023-03-19T22:37:59.415Z,28.27
2023-03-19T22:40:06.137Z,23.33
2023-03-19T22:42:15.061Z,24.42
2023-03-19T22:44:26.970Z,23.42
2023-03-19T22:46:34.446Z,25.25
2023-03-19T22:48:43.008Z,27.63
2023-03-19T22:50:50.392Z,28.55
2023-03-19T22:52:57.880Z,28.45
2023-03-19T22:55:04.908Z,28.95
2023-03-19T22:57:15.727Z,28.33
2023-03-19T22:59:22.910Z,28.70
2023-03-19T23:01:41.120Z,29.73
2023-03-19T23:03:48.795Z,29.50
2023-03-19T23:05:58.123Z,29.88
2023-03-19T23:08:06.657Z,32.75
2023-03-19T23:10:20.639Z,34.15
2023-03-19T23:12:29.597Z,34.13
2023-03-19T23:14:36.316Z,34.05
2023-03-19T23:16:45.608Z,32.05
2023-03-19T23:18:53.242Z,31.77
2023-03-19T23:21:00.688Z,30.52
2023-03-19T23:23:08.628Z,28.60
2023-03-19T23:25:20.265Z,29.95
2023-03-19T23:27:30.060Z,29.73
2023-03-19T23:29:40.827Z,29.17
2023-03-19T23:31:47.554Z,28.92
2023-03-19T23:33:56.007Z,28.90
2023-03-19T23:36:03.611Z,29.60
2023-03-19T23:38:11.238Z,28.42
2023-03-19T23:40:18.880Z,30.02
2023-03-19T23:42:32.781Z,30.10
2023-03-19T23:44:40.925Z,28.08
2023-03-19T23:46:48.772Z,26.63
2023-03-19T23:48:55.749Z,25.90
2023-03-19T23:51:02.880Z,24.73
2023-03-19T23:53:09.805Z,23.90
2023-03-19T23:55:17.601Z,25.95
2023-03-19T23:57:27.427Z,25.52
2023-03-19T23:59:38.427Z,25.67
